sensor_id;sensor_type;location;lat;lon;timestamp;P1;durP1;ratioP1;P2;durP2;ratioP2
68140;SDS011;54941;52.220;104.306;2023-08-01T00:00:20;14.18;;;9.63;;
68140;SDS011;54941;52.220;104.306;2023-08-01T00:02:46;14.43;;;9.40;;
68140;SDS011;54941;52.220;104.306;2023-08-01T00:05:14;14.30;;;10.25;;
68140;SDS011;54941;52.220;104.306;2023-08-01T00:07:40;14.45;;;10.40;;
68140;SDS011;54941;52.220;104.306;2023-08-01T00:10:07;15.45;;;9.70;;
68140;SDS011;54941;52.220;104.306;2023-08-01T00:12:33;12.82;;;9.27;;
68140;SDS011;54941;52.220;104.306;2023-08-01T00:14:59;16.98;;;9.68;;
68140;SDS011;54941;52.220;104.306;2023-08-01T00:17:26;11.88;;;9.93;;
68140;SDS011;54941;52.220;104.306;2023-08-01T00:19:52;12.68;;;9.25;;
68140;SDS011;54941;52.220;104.306;2023-08-01T00:22:20;13.65;;;9.95;;
68140;SDS011;54941;52.220;104.306;2023-08-01T00:24:46;12.18;;;8.60;;
68140;SDS011;54941;52.220;104.306;2023-08-01T00:27:13;11.98;;;9.02;;
68140;SDS011;54941;52.220;104.306;2023-08-01T00:29:39;15.13;;;9.85;;
68140;SDS011;54941;52.220;104.306;2023-08-01T00:32:05;14.65;;;9.18;;
68140;SDS011;54941;52.220;104.306;2023-08-01T00:34:32;14.63;;;10.48;;
68140;SDS011;54941;52.220;104.306;2023-08-01T00:36:58;16.20;;;10.70;;
68140;SDS011;54941;52.220;104.306;2023-08-01T00:39:26;13.25;;;10.57;;
68140;SDS011;54941;52.220;104.306;2023-08-01T00:41:52;15.52;;;9.85;;
68140;SDS011;54941;52.220;104.306;2023-08-01T00:44:18;16.10;;;9.75;;
68140;SDS011;54941;52.220;104.306;2023-08-01T00:46:44;15.07;;;11.20;;
68140;SDS011;54941;52.220;104.306;2023-08-01T00:49:11;16.00;;;11.15;;
68140;SDS011;54941;52.220;104.306;2023-08-01T00:51:37;14.50;;;10.48;;
68140;SDS011;54941;52.220;104.306;2023-08-01T00:54:03;14.52;;;10.35;;
68140;SDS011;54941;52.220;104.306;2023-08-01T00:56:31;15.90;;;11.70;;
68140;SDS011;54941;52.220;104.306;2023-08-01T00:58:58;15.57;;;10.32;;
68140;SDS011;54941;52.220;104.306;2023-08-01T01:01:24;17.27;;;11.90;;
68140;SDS011;54941;52.220;104.306;2023-08-01T01:03:50;14.68;;;10.48;;
68140;SDS011;54941;52.220;104.306;2023-08-01T01:06:18;14.52;;;11.25;;
68140;SDS011;54941;52.220;104.306;2023-08-01T01:08:48;16.75;;;11.07;;
68140;SDS011;54941;52.220;104.306;2023-08-01T01:11:14;16.38;;;11.88;;
68140;SDS011;54941;52.220;104.306;2023-08-01T01:13:42;17.30;;;11.48;;
68140;SDS011;54941;52.220;104.306;2023-08-01T01:16:08;15.23;;;9.90;;
68140;SDS011;54941;52.220;104.306;2023-08-01T01:18:34;14.73;;;10.73;;
68140;SDS011;54941;52.220;104.306;2023-08-01T01:21:02;16.10;;;10.88;;
68140;SDS011;54941;52.220;104.306;2023-08-01T01:23:29;15.60;;;10.48;;
68140;SDS011;54941;52.220;104.306;2023-08-01T01:25:56;15.30;;;10.82;;
68140;SDS011;54941;52.220;104.306;2023-08-01T01:28:23;16.05;;;11.60;;
68140;SDS011;54941;52.220;104.306;2023-08-01T01:30:50;15.82;;;10.57;;
68140;SDS011;54941;52.220;104.306;2023-08-01T01:33:17;17.90;;;13.15;;
68140;SDS011;54941;52.220;104.306;2023-08-01T01:35:44;15.98;;;13.13;;
68140;SDS011;54941;52.220;104.306;2023-08-01T01:38:12;19.52;;;12.48;;
68140;SDS011;54941;52.220;104.306;2023-08-01T01:40:38;15.82;;;12.25;;
68140;SDS011;54941;52.220;104.306;2023-08-01T01:43:05;14.07;;;11.30;;
68140;SDS011;54941;52.220;104.306;2023-08-01T01:45:31;15.98;;;11.73;;
68140;SDS011;54941;52.220;104.306;2023-08-01T01:47:57;14.20;;;10.32;;
68140;SDS011;54941;52.220;104.306;2023-08-01T01:50:23;14.38;;;10.43;;
68140;SDS011;54941;52.220;104.306;2023-08-01T01:52:49;15.95;;;11.38;;
68140;SDS011;54941;52.220;104.306;2023-08-01T01:55:17;16.35;;;11.70;;
68140;SDS011;54941;52.220;104.306;2023-08-01T01:57:45;15.02;;;11.05;;
68140;SDS011;54941;52.220;104.306;2023-08-01T02:00:11;15.57;;;11.02;;
68140;SDS011;54941;52.220;104.306;2023-08-01T02:02:40;16.88;;;11.93;;
68140;SDS011;54941;52.220;104.306;2023-08-01T02:05:07;16.30;;;10.48;;
68140;SDS011;54941;52.220;104.306;2023-08-01T02:07:33;15.52;;;10.52;;
68140;SDS011;54941;52.220;104.306;2023-08-01T02:10:01;14.52;;;10.98;;
68140;SDS011;54941;52.220;104.306;2023-08-01T02:12:32;15.05;;;11.23;;
68140;SDS011;54941;52.220;104.306;2023-08-01T02:14:58;13.55;;;10.32;;
68140;SDS011;54941;52.220;104.306;2023-08-01T02:17:25;14.73;;;10.80;;
68140;SDS011;54941;52.220;104.306;2023-08-01T02:20:11;15.73;;;11.85;;
68140;SDS011;54941;52.220;104.306;2023-08-01T02:22:46;14.60;;;10.85;;
68140;SDS011;54941;52.220;104.306;2023-08-01T02:25:12;17.90;;;12.48;;
68140;SDS011;54941;52.220;104.306;2023-08-01T02:27:40;16.50;;;12.32;;
68140;SDS011;54941;52.220;104.306;2023-08-01T02:30:07;17.48;;;11.55;;
68140;SDS011;54941;52.220;104.306;2023-08-01T02:32:35;16.70;;;12.30;;
68140;SDS011;54941;52.220;104.306;2023-08-01T02:35:03;15.38;;;11.45;;
68140;SDS011;54941;52.220;104.306;2023-08-01T02:37:33;15.50;;;11.35;;
68140;SDS011;54941;52.220;104.306;2023-08-01T02:40:03;15.07;;;11.27;;
68140;SDS011;54941;52.220;104.306;2023-08-01T02:42:31;14.80;;;11.70;;
68140;SDS011;54941;52.220;104.306;2023-08-01T02:44:59;16.48;;;12.57;;
68140;SDS011;54941;52.220;104.306;2023-08-01T02:47:25;16.33;;;12.27;;
68140;SDS011;54941;52.220;104.306;2023-08-01T02:49:51;17.15;;;13.23;;
68140;SDS011;54941;52.220;104.306;2023-08-01T02:52:17;16.02;;;12.02;;
68140;SDS011;54941;52.220;104.306;2023-08-01T02:54:44;16.05;;;11.93;;
68140;SDS011;54941;52.220;104.306;2023-08-01T02:57:10;17.80;;;12.90;;
68140;SDS011;54941;52.220;104.306;2023-08-01T02:59:36;17.70;;;13.35;;
68140;SDS011;54941;52.220;104.306;2023-08-01T03:02:04;15.98;;;12.75;;
68140;SDS011;54941;52.220;104.306;2023-08-01T03:04:30;16.75;;;12.13;;
68140;SDS011;54941;52.220;104.306;2023-08-01T03:06:57;15.93;;;12.27;;
68140;SDS011;54941;52.220;104.306;2023-08-01T03:09:23;18.10;;;13.18;;
68140;SDS011;54941;52.220;104.306;2023-08-01T03:11:49;18.73;;;13.15;;
68140;SDS011;54941;52.220;104.306;2023-08-01T03:14:15;15.75;;;12.07;;
68140;SDS011;54941;52.220;104.306;2023-08-01T03:16:42;16.75;;;12.45;;
68140;SDS011;54941;52.220;104.306;2023-08-01T03:19:10;17.27;;;12.65;;
68140;SDS011;54941;52.220;104.306;2023-08-01T03:21:36;18.05;;;13.60;;
68140;SDS011;54941;52.220;104.306;2023-08-01T03:24:03;21.98;;;12.55;;
68140;SDS011;54941;52.220;104.306;2023-08-01T03:26:29;18.17;;;12.60;;
68140;SDS011;54941;52.220;104.306;2023-08-01T03:28:56;18.48;;;13.10;;
68140;SDS011;54941;52.220;104.306;2023-08-01T03:31:23;21.08;;;13.60;;
68140;SDS011;54941;52.220;104.306;2023-08-01T03:33:50;17.52;;;13.65;;
68140;SDS011;54941;52.220;104.306;2023-08-01T03:36:18;17.00;;;13.18;;
68140;SDS011;54941;52.220;104.306;2023-08-01T03:38:45;18.88;;;13.38;;
68140;SDS011;54941;52.220;104.306;2023-08-01T03:41:12;21.90;;;14.13;;
68140;SDS011;54941;52.220;104.306;2023-08-01T03:43:39;19.48;;;15.27;;
68140;SDS011;54941;52.220;104.306;2023-08-01T03:46:06;23.00;;;14.32;;
68140;SDS011;54941;52.220;104.306;2023-08-01T03:48:34;19.52;;;14.30;;
68140;SDS011;54941;52.220;104.306;2023-08-01T03:51:00;19.45;;;14.23;;
68140;SDS011;54941;52.220;104.306;2023-08-01T03:53:28;19.60;;;15.40;;
68140;SDS011;54941;52.220;104.306;2023-08-01T03:55:54;19.75;;;15.15;;
68140;SDS011;54941;52.220;104.306;2023-08-01T03:58:20;18.98;;;14.60;;
68140;SDS011;54941;52.220;104.306;2023-08-01T04:00:47;19.15;;;14.40;;
68140;SDS011;54941;52.220;104.306;2023-08-01T04:03:13;21.60;;;15.15;;
68140;SDS011;54941;52.220;104.306;2023-08-01T04:05:40;21.77;;;15.65;;
68140;SDS011;54941;52.220;104.306;2023-08-01T04:08:06;20.70;;;15.88;;
68140;SDS011;54941;52.220;104.306;2023-08-01T04:10:34;21.15;;;14.68;;
68140;SDS011;54941;52.220;104.306;2023-08-01T04:13:00;20.40;;;15.55;;
68140;SDS011;54941;52.220;104.306;2023-08-01T04:15:26;21.92;;;16.73;;
68140;SDS011;54941;52.220;104.306;2023-08-01T04:17:53;21.33;;;15.48;;
68140;SDS011;54941;52.220;104.306;2023-08-01T04:20:19;22.05;;;16.35;;
68140;SDS011;54941;52.220;104.306;2023-08-01T04:22:45;21.13;;;16.45;;
68140;SDS011;54941;52.220;104.306;2023-08-01T04:25:12;24.13;;;17.63;;
68140;SDS011;54941;52.220;104.306;2023-08-01T04:27:40;24.10;;;18.10;;
68140;SDS011;54941;52.220;104.306;2023-08-01T04:30:06;23.30;;;17.58;;
68140;SDS011;54941;52.220;104.306;2023-08-01T04:32:36;27.67;;;17.95;;
68140;SDS011;54941;52.220;104.306;2023-08-01T04:35:04;23.90;;;19.25;;
68140;SDS011;54941;52.220;104.306;2023-08-01T04:37:34;22.92;;;19.10;;
68140;SDS011;54941;52.220;104.306;2023-08-01T04:40:01;23.30;;;18.10;;
68140;SDS011;54941;52.220;104.306;2023-08-01T04:42:33;30.58;;;21.17;;
68140;SDS011;54941;52.220;104.306;2023-08-01T04:45:01;28.98;;;21.17;;
68140;SDS011;54941;52.220;104.306;2023-08-01T04:47:30;28.52;;;20.10;;
68140;SDS011;54941;52.220;104.306;2023-08-01T04:49:56;28.85;;;19.95;;
68140;SDS011;54941;52.220;104.306;2023-08-01T04:52:23;31.38;;;21.08;;
68140;SDS011;54941;52.220;104.306;2023-08-01T04:54:49;30.55;;;21.83;;
68140;SDS011;54941;52.220;104.306;2023-08-01T04:57:15;28.42;;;20.23;;
68140;SDS011;54941;52.220;104.306;2023-08-01T04:59:42;29.33;;;20.90;;
68140;SDS011;54941;52.220;104.306;2023-08-01T05:02:09;28.30;;;20.50;;
68140;SDS011;54941;52.220;104.306;2023-08-01T05:04:36;24.90;;;19.20;;
68140;SDS011;54941;52.220;104.306;2023-08-01T05:07:03;28.27;;;21.05;;
68140;SDS011;54941;52.220;104.306;2023-08-01T05:09:32;29.15;;;22.95;;
68140;SDS011;54941;52.220;104.306;2023-08-01T05:11:58;29.85;;;22.40;;
68140;SDS011;54941;52.220;104.306;2023-08-01T05:14:25;26.55;;;21.73;;
68140;SDS011;54941;52.220;104.306;2023-08-01T05:16:51;25.85;;;20.23;;
68140;SDS011;54941;52.220;104.306;2023-08-01T05:19:21;29.38;;;20.10;;
68140;SDS011;54941;52.220;104.306;2023-08-01T05:21:47;29.48;;;21.45;;
68140;SDS011;54941;52.220;104.306;2023-08-01T05:24:13;30.92;;;22.42;;
68140;SDS011;54941;52.220;104.306;2023-08-01T05:26:40;31.65;;;23.58;;
68140;SDS011;54941;52.220;104.306;2023-08-01T05:29:06;34.83;;;24.17;;
68140;SDS011;54941;52.220;104.306;2023-08-01T05:31:32;32.20;;;23.65;;
68140;SDS011;54941;52.220;104.306;2023-08-01T05:33:58;34.80;;;24.75;;
68140;SDS011;54941;52.220;104.306;2023-08-01T05:36:26;39.65;;;26.38;;
68140;SDS011;54941;52.220;104.306;2023-08-01T05:38:52;36.67;;;25.67;;
68140;SDS011;54941;52.220;104.306;2023-08-01T05:41:19;34.90;;;24.33;;
68140;SDS011;54941;52.220;104.306;2023-08-01T05:43:46;33.33;;;23.55;;
68140;SDS011;54941;52.220;104.306;2023-08-01T05:46:13;34.42;;;24.40;;
68140;SDS011;54941;52.220;104.306;2023-08-01T05:48:40;35.15;;;22.75;;
68140;SDS011;54941;52.220;104.306;2023-08-01T05:51:06;33.70;;;24.08;;
68140;SDS011;54941;52.220;104.306;2023-08-01T05:53:34;34.45;;;23.05;;
68140;SDS011;54941;52.220;104.306;2023-08-01T05:56:00;27.63;;;21.45;;
68140;SDS011;54941;52.220;104.306;2023-08-01T05:58:26;33.47;;;23.95;;
68140;SDS011;54941;52.220;104.306;2023-08-01T06:00:53;33.33;;;23.17;;
68140;SDS011;54941;52.220;104.306;2023-08-01T06:03:19;37.58;;;26.52;;
68140;SDS011;54941;52.220;104.306;2023-08-01T06:05:46;33.85;;;24.73;;
68140;SDS011;54941;52.220;104.306;2023-08-01T06:08:12;28.05;;;20.85;;
68140;SDS011;54941;52.220;104.306;2023-08-01T06:10:40;21.08;;;16.45;;
68140;SDS011;54941;52.220;104.306;2023-08-01T06:13:06;19.17;;;15.35;;
68140;SDS011;54941;52.220;104.306;2023-08-01T06:15:32;22.92;;;17.73;;
68140;SDS011;54941;52.220;104.306;2023-08-01T06:17:59;24.60;;;18.15;;
68140;SDS011;54941;52.220;104.306;2023-08-01T06:20:25;22.58;;;17.33;;
68140;SDS011;54941;52.220;104.306;2023-08-01T06:22:52;19.05;;;15.65;;
68140;SDS011;54941;52.220;104.306;2023-08-01T06:25:18;21.90;;;16.05;;
68140;SDS011;54941;52.220;104.306;2023-08-01T06:27:47;19.42;;;15.98;;
68140;SDS011;54941;52.220;104.306;2023-08-01T06:30:13;21.30;;;15.77;;
68140;SDS011;54941;52.220;104.306;2023-08-01T06:32:40;22.15;;;17.27;;
68140;SDS011;54941;52.220;104.306;2023-08-01T06:35:06;17.48;;;14.05;;
68140;SDS011;54941;52.220;104.306;2023-08-01T06:37:33;19.58;;;14.55;;
68140;SDS011;54941;52.220;104.306;2023-08-01T06:40:03;19.05;;;14.38;;
68140;SDS011;54941;52.220;104.306;2023-08-01T06:42:30;20.60;;;14.60;;
68140;SDS011;54941;52.220;104.306;2023-08-01T06:44:58;20.42;;;15.88;;
68140;SDS011;54941;52.220;104.306;2023-08-01T06:47:24;19.33;;;15.45;;
68140;SDS011;54941;52.220;104.306;2023-08-01T06:49:56;20.42;;;15.15;;
68140;SDS011;54941;52.220;104.306;2023-08-01T06:52:24;20.40;;;14.10;;
68140;SDS011;54941;52.220;104.306;2023-08-01T06:54:51;19.50;;;14.82;;
68140;SDS011;54941;52.220;104.306;2023-08-01T06:57:17;23.45;;;15.55;;
68140;SDS011;54941;52.220;104.306;2023-08-01T06:59:43;20.85;;;14.98;;
68140;SDS011;54941;52.220;104.306;2023-08-01T07:02:11;22.25;;;15.90;;
68140;SDS011;54941;52.220;104.306;2023-08-01T07:04:37;21.38;;;16.33;;
68140;SDS011;54941;52.220;104.306;2023-08-01T07:07:03;22.98;;;17.20;;
68140;SDS011;54941;52.220;104.306;2023-08-01T07:09:30;21.90;;;17.48;;
68140;SDS011;54941;52.220;104.306;2023-08-01T07:11:56;22.25;;;16.77;;
68140;SDS011;54941;52.220;104.306;2023-08-01T07:14:22;23.55;;;18.13;;
68140;SDS011;54941;52.220;104.306;2023-08-01T07:16:48;26.00;;;18.30;;
68140;SDS011;54941;52.220;104.306;2023-08-01T07:19:16;24.48;;;18.92;;
68140;SDS011;54941;52.220;104.306;2023-08-01T07:21:42;22.75;;;17.98;;
68140;SDS011;54941;52.220;104.306;2023-08-01T07:24:11;28.65;;;19.73;;
68140;SDS011;54941;52.220;104.306;2023-08-01T07:26:37;26.33;;;19.88;;
68140;SDS011;54941;52.220;104.306;2023-08-01T07:29:04;27.48;;;20.95;;
68140;SDS011;54941;52.220;104.306;2023-08-01T07:31:30;26.70;;;20.67;;
68140;SDS011;54941;52.220;104.306;2023-08-01T07:33:56;31.50;;;25.00;;
68140;SDS011;54941;52.220;104.306;2023-08-01T07:36:24;26.92;;;20.95;;
68140;SDS011;54941;52.220;104.306;2023-08-01T07:38:50;33.10;;;23.05;;
68140;SDS011;54941;52.220;104.306;2023-08-01T07:41:16;33.97;;;26.40;;
68140;SDS011;54941;52.220;104.306;2023-08-01T07:43:43;31.75;;;24.20;;
68140;SDS011;54941;52.220;104.306;2023-08-01T07:46:09;34.45;;;25.80;;
68140;SDS011;54941;52.220;104.306;2023-08-01T07:48:35;37.67;;;30.02;;
68140;SDS011;54941;52.220;104.306;2023-08-01T07:51:01;36.10;;;26.50;;
68140;SDS011;54941;52.220;104.306;2023-08-01T07:53:29;39.78;;;28.25;;
68140;SDS011;54941;52.220;104.306;2023-08-01T07:55:55;41.58;;;28.75;;
68140;SDS011;54941;52.220;104.306;2023-08-01T07:58:22;34.97;;;28.33;;
68140;SDS011;54941;52.220;104.306;2023-08-01T08:00:48;38.83;;;29.33;;
68140;SDS011;54941;52.220;104.306;2023-08-01T08:03:15;38.13;;;26.40;;
68140;SDS011;54941;52.220;104.306;2023-08-01T08:05:41;38.65;;;29.10;;
68140;SDS011;54941;52.220;104.306;2023-08-01T08:08:07;33.30;;;23.63;;
68140;SDS011;54941;52.220;104.306;2023-08-01T08:10:35;32.85;;;23.08;;
68140;SDS011;54941;52.220;104.306;2023-08-01T08:13:01;30.55;;;22.35;;
68140;SDS011;54941;52.220;104.306;2023-08-01T08:15:28;28.27;;;20.73;;
68140;SDS011;54941;52.220;104.306;2023-08-01T08:17:54;30.80;;;22.67;;
68140;SDS011;54941;52.220;104.306;2023-08-01T08:20:20;25.52;;;20.13;;
68140;SDS011;54941;52.220;104.306;2023-08-01T08:22:46;28.98;;;21.83;;
68140;SDS011;54941;52.220;104.306;2023-08-01T08:25:13;30.83;;;21.67;;
68140;SDS011;54941;52.220;104.306;2023-08-01T08:27:40;28.13;;;20.48;;
68140;SDS011;54941;52.220;104.306;2023-08-01T08:30:07;28.52;;;20.55;;
68140;SDS011;54941;52.220;104.306;2023-08-01T08:32:35;32.55;;;24.40;;
68140;SDS011;54941;52.220;104.306;2023-08-01T08:35:01;33.03;;;26.13;;
68140;SDS011;54941;52.220;104.306;2023-08-01T08:37:29;36.30;;;25.77;;
68140;SDS011;54941;52.220;104.306;2023-08-01T08:39:55;34.42;;;25.20;;
68140;SDS011;54941;52.220;104.306;2023-08-01T08:42:22;33.92;;;24.88;;
68140;SDS011;54941;52.220;104.306;2023-08-01T08:44:50;36.03;;;25.73;;
68140;SDS011;54941;52.220;104.306;2023-08-01T08:47:20;36.15;;;27.25;;
68140;SDS011;54941;52.220;104.306;2023-08-01T08:49:50;39.40;;;24.92;;
68140;SDS011;54941;52.220;104.306;2023-08-01T08:52:17;34.35;;;24.55;;
68140;SDS011;54941;52.220;104.306;2023-08-01T08:54:44;29.83;;;21.45;;
68140;SDS011;54941;52.220;104.306;2023-08-01T08:57:11;31.33;;;22.45;;
68140;SDS011;54941;52.220;104.306;2023-08-01T08:59:38;31.90;;;22.63;;
68140;SDS011;54941;52.220;104.306;2023-08-01T09:02:06;28.25;;;20.77;;
68140;SDS011;54941;52.220;104.306;2023-08-01T09:04:32;28.63;;;20.45;;
68140;SDS011;54941;52.220;104.306;2023-08-01T09:07:00;25.83;;;19.13;;
68140;SDS011;54941;52.220;104.306;2023-08-01T09:09:28;21.25;;;15.32;;
68140;SDS011;54941;52.220;104.306;2023-08-01T09:11:57;23.10;;;19.27;;
68140;SDS011;54941;52.220;104.306;2023-08-01T09:14:24;23.65;;;15.95;;
68140;SDS011;54941;52.220;104.306;2023-08-01T09:16:50;21.77;;;15.40;;
68140;SDS011;54941;52.220;104.306;2023-08-01T09:19:18;23.42;;;16.83;;
68140;SDS011;54941;52.220;104.306;2023-08-01T09:21:46;26.92;;;20.10;;
68140;SDS011;54941;52.220;104.306;2023-08-01T09:24:14;22.52;;;16.50;;
68140;SDS011;54941;52.220;104.306;2023-08-01T09:26:41;23.25;;;16.63;;
68140;SDS011;54941;52.220;104.306;2023-08-01T09:29:08;28.75;;;20.02;;
68140;SDS011;54941;52.220;104.306;2023-08-01T09:31:34;25.13;;;18.30;;
68140;SDS011;54941;52.220;104.306;2023-08-01T09:34:02;25.50;;;17.65;;
68140;SDS011;54941;52.220;104.306;2023-08-01T09:36:30;34.20;;;19.40;;
68140;SDS011;54941;52.220;104.306;2023-08-01T09:39:00;31.02;;;19.75;;
68140;SDS011;54941;52.220;104.306;2023-08-01T09:41:27;30.42;;;20.40;;
68140;SDS011;54941;52.220;104.306;2023-08-01T09:43:54;29.52;;;21.17;;
68140;SDS011;54941;52.220;104.306;2023-08-01T09:46:20;25.02;;;18.67;;
68140;SDS011;54941;52.220;104.306;2023-08-01T09:48:47;27.08;;;18.55;;
68140;SDS011;54941;52.220;104.306;2023-08-01T09:51:13;29.27;;;19.27;;
68140;SDS011;54941;52.220;104.306;2023-08-01T09:53:49;30.83;;;21.35;;
68140;SDS011;54941;52.220;104.306;2023-08-01T09:56:17;32.25;;;20.35;;
68140;SDS011;54941;52.220;104.306;2023-08-01T09:58:45;29.90;;;22.00;;
68140;SDS011;54941;52.220;104.306;2023-08-01T10:01:12;30.25;;;21.15;;
68140;SDS011;54941;52.220;104.306;2023-08-01T10:03:40;32.05;;;22.70;;
68140;SDS011;54941;52.220;104.306;2023-08-01T10:06:11;34.83;;;22.42;;
68140;SDS011;54941;52.220;104.306;2023-08-01T10:08:42;33.97;;;23.42;;
68140;SDS011;54941;52.220;104.306;2023-08-01T10:11:11;27.05;;;21.05;;
68140;SDS011;54941;52.220;104.306;2023-08-01T10:13:39;27.23;;;20.30;;
68140;SDS011;54941;52.220;104.306;2023-08-01T10:16:07;30.55;;;23.13;;
68140;SDS011;54941;52.220;104.306;2023-08-01T10:18:34;27.33;;;21.40;;
68140;SDS011;54941;52.220;104.306;2023-08-01T10:21:02;26.42;;;21.48;;
68140;SDS011;54941;52.220;104.306;2023-08-01T10:23:30;25.85;;;20.10;;
68140;SDS011;54941;52.220;104.306;2023-08-01T10:25:57;31.80;;;21.58;;
68140;SDS011;54941;52.220;104.306;2023-08-01T10:28:32;27.20;;;21.35;;
68140;SDS011;54941;52.220;104.306;2023-08-01T10:31:06;32.08;;;22.92;;
68140;SDS011;54941;52.220;104.306;2023-08-01T10:33:36;29.65;;;20.73;;
68140;SDS011;54941;52.220;104.306;2023-08-01T10:36:12;31.30;;;21.25;;
68140;SDS011;54941;52.220;104.306;2023-08-01T10:38:44;33.72;;;22.80;;
68140;SDS011;54941;52.220;104.306;2023-08-01T10:41:18;33.05;;;23.92;;
68140;SDS011;54941;52.220;104.306;2023-08-01T10:43:46;34.88;;;21.88;;
68140;SDS011;54941;52.220;104.306;2023-08-01T10:46:12;33.85;;;23.75;;
68140;SDS011;54941;52.220;104.306;2023-08-01T10:48:47;35.60;;;25.33;;
68140;SDS011;54941;52.220;104.306;2023-08-01T10:51:16;33.20;;;23.77;;
68140;SDS011;54941;52.220;104.306;2023-08-01T10:53:45;38.97;;;23.75;;
68140;SDS011;54941;52.220;104.306;2023-08-01T10:56:18;40.42;;;27.23;;
68140;SDS011;54941;52.220;104.306;2023-08-01T10:58:46;34.47;;;25.80;;
68140;SDS011;54941;52.220;104.306;2023-08-01T11:01:13;37.75;;;25.88;;
68140;SDS011;54941;52.220;104.306;2023-08-01T11:03:39;38.22;;;27.60;;
68140;SDS011;54941;52.220;104.306;2023-08-01T11:06:05;41.28;;;25.77;;
68140;SDS011;54941;52.220;104.306;2023-08-01T11:08:35;40.67;;;23.83;;
68140;SDS011;54941;52.220;104.306;2023-08-01T11:11:03;39.17;;;23.08;;
68140;SDS011;54941;52.220;104.306;2023-08-01T11:13:30;38.03;;;24.45;;
68140;SDS011;54941;52.220;104.306;2023-08-01T11:15:58;38.22;;;25.60;;
68140;SDS011;54941;52.220;104.306;2023-08-01T11:18:25;33.10;;;19.88;;
68140;SDS011;54941;52.220;104.306;2023-08-01T11:20:51;34.30;;;22.33;;
68140;SDS011;54941;52.220;104.306;2023-08-01T11:23:17;32.95;;;20.80;;
68140;SDS011;54941;52.220;104.306;2023-08-01T11:25:44;37.50;;;23.30;;
68140;SDS011;54941;52.220;104.306;2023-08-01T11:28:14;33.22;;;21.25;;
68140;SDS011;54941;52.220;104.306;2023-08-01T11:30:41;35.78;;;22.13;;
68140;SDS011;54941;52.220;104.306;2023-08-01T11:33:15;35.42;;;25.75;;
68140;SDS011;54941;52.220;104.306;2023-08-01T11:35:43;33.90;;;22.80;;
68140;SDS011;54941;52.220;104.306;2023-08-01T11:38:09;36.03;;;25.10;;
68140;SDS011;54941;52.220;104.306;2023-08-01T11:40:36;34.80;;;23.08;;
68140;SDS011;54941;52.220;104.306;2023-08-01T11:43:04;38.03;;;25.08;;
68140;SDS011;54941;52.220;104.306;2023-08-01T11:45:31;41.20;;;25.75;;
68140;SDS011;54941;52.220;104.306;2023-08-01T11:47:57;31.85;;;21.15;;
68140;SDS011;54941;52.220;104.306;2023-08-01T11:50:25;32.83;;;22.10;;
68140;SDS011;54941;52.220;104.306;2023-08-01T11:52:53;33.95;;;21.05;;
68140;SDS011;54941;52.220;104.306;2023-08-01T11:55:20;34.92;;;20.23;;
68140;SDS011;54941;52.220;104.306;2023-08-01T11:57:54;40.25;;;19.75;;
68140;SDS011;54941;52.220;104.306;2023-08-01T12:00:21;33.40;;;19.83;;
68140;SDS011;54941;52.220;104.306;2023-08-01T12:02:49;37.90;;;21.92;;
68140;SDS011;54941;52.220;104.306;2023-08-01T12:05:21;34.55;;;22.95;;
68140;SDS011;54941;52.220;104.306;2023-08-01T12:07:50;31.92;;;19.35;;
68140;SDS011;54941;52.220;104.306;2023-08-01T12:10:16;35.80;;;19.65;;
68140;SDS011;54941;52.220;104.306;2023-08-01T12:12:43;33.85;;;20.55;;
68140;SDS011;54941;52.220;104.306;2023-08-01T12:15:11;39.75;;;20.95;;
68140;SDS011;54941;52.220;104.306;2023-08-01T12:17:37;32.67;;;20.40;;
68140;SDS011;54941;52.220;104.306;2023-08-01T12:20:04;35.05;;;20.58;;
68140;SDS011;54941;52.220;104.306;2023-08-01T12:22:32;36.22;;;22.83;;
68140;SDS011;54941;52.220;104.306;2023-08-01T12:24:59;36.20;;;20.20;;
68140;SDS011;54941;52.220;104.306;2023-08-01T12:27:25;31.52;;;20.52;;
68140;SDS011;54941;52.220;104.306;2023-08-01T12:29:51;36.58;;;22.35;;
68140;SDS011;54941;52.220;104.306;2023-08-01T12:32:19;37.33;;;24.27;;
68140;SDS011;54941;52.220;104.306;2023-08-01T12:34:46;35.38;;;21.20;;
68140;SDS011;54941;52.220;104.306;2023-08-01T12:37:14;30.88;;;21.00;;
68140;SDS011;54941;52.220;104.306;2023-08-01T12:42:08;35.63;;;23.95;;
68140;SDS011;54941;52.220;104.306;2023-08-01T12:44:34;36.33;;;24.48;;
68140;SDS011;54941;52.220;104.306;2023-08-01T12:47:00;44.00;;;26.27;;
68140;SDS011;54941;52.220;104.306;2023-08-01T12:49:26;36.13;;;23.25;;
68140;SDS011;54941;52.220;104.306;2023-08-01T12:51:53;34.63;;;23.73;;
68140;SDS011;54941;52.220;104.306;2023-08-01T12:54:19;36.58;;;23.42;;
68140;SDS011;54941;52.220;104.306;2023-08-01T12:56:45;40.10;;;25.58;;
68140;SDS011;54941;52.220;104.306;2023-08-01T12:59:13;38.17;;;22.27;;
68140;SDS011;54941;52.220;104.306;2023-08-01T13:01:39;35.50;;;22.23;;
68140;SDS011;54941;52.220;104.306;2023-08-01T13:04:05;42.13;;;25.13;;
68140;SDS011;54941;52.220;104.306;2023-08-01T13:06:35;41.97;;;25.55;;
68140;SDS011;54941;52.220;104.306;2023-08-01T13:09:01;38.90;;;25.35;;
68140;SDS011;54941;52.220;104.306;2023-08-01T13:11:27;37.78;;;22.85;;
68140;SDS011;54941;52.220;104.306;2023-08-01T13:13:54;37.97;;;21.70;;
68140;SDS011;54941;52.220;104.306;2023-08-01T13:16:22;34.92;;;23.45;;
68140;SDS011;54941;52.220;104.306;2023-08-01T13:18:48;36.20;;;23.75;;
68140;SDS011;54941;52.220;104.306;2023-08-01T13:21:14;43.63;;;24.05;;
68140;SDS011;54941;52.220;104.306;2023-08-01T13:23:40;37.28;;;23.75;;
68140;SDS011;54941;52.220;104.306;2023-08-01T13:26:07;40.92;;;25.73;;
68140;SDS011;54941;52.220;104.306;2023-08-01T13:28:33;39.28;;;25.77;;
68140;SDS011;54941;52.220;104.306;2023-08-01T13:30:59;44.35;;;28.95;;
68140;SDS011;54941;52.220;104.306;2023-08-01T13:33:27;40.88;;;25.60;;
68140;SDS011;54941;52.220;104.306;2023-08-01T13:35:54;39.75;;;24.70;;
68140;SDS011;54941;52.220;104.306;2023-08-01T13:38:20;41.67;;;27.48;;
68140;SDS011;54941;52.220;104.306;2023-08-01T13:40:50;45.25;;;29.60;;
68140;SDS011;54941;52.220;104.306;2023-08-01T13:43:16;40.92;;;24.17;;
68140;SDS011;54941;52.220;104.306;2023-08-01T13:45:42;41.45;;;26.13;;
68140;SDS011;54941;52.220;104.306;2023-08-01T13:48:08;38.00;;;25.15;;
68140;SDS011;54941;52.220;104.306;2023-08-01T13:50:36;40.42;;;24.42;;
68140;SDS011;54941;52.220;104.306;2023-08-01T13:53:02;39.85;;;24.80;;
68140;SDS011;54941;52.220;104.306;2023-08-01T13:55:29;42.58;;;25.52;;
68140;SDS011;54941;52.220;104.306;2023-08-01T13:57:57;45.65;;;27.73;;